IZA302 UUDD-USII
Flight info
| Callsign | IZA302 |
|---|---|
| Flight time | 1h 35m |
| Altitude | 35000 |
| Route | N0460F350 KOGOM L94 EKPIR M864 INKEB L94 NAMER T765 SUBIK |
| Aircraft | B738/M-Q/L |
Departure
| Time | 2026-04-24 06:13 |
|---|---|
| Airport | Domodedovo International Airport (UUDD) |
Arrival
| Time | 2026-04-24 07:48 |
|---|---|
| Airport | Izhevsk Airport (USII) |
| Time | Latitude | Longitude | Altitude | Speed | Heading |
|---|---|---|---|---|---|
| 2026-04-24 05:48 | 55.41278 | 37.90356 | 573 ft | 0 kts | 4° |
| 2026-04-24 06:03 | 55.41271 | 37.90355 | 573 ft | 2 kts | 5° |
| 2026-04-24 06:03 | 55.41256 | 37.90353 | 572 ft | 2 kts | 5° |
| 2026-04-24 06:03 | 55.41242 | 37.90352 | 572 ft | 2 kts | 10° |
| 2026-04-24 06:03 | 55.41228 | 37.90340 | 571 ft | 2 kts | 43° |
| 2026-04-24 06:04 | 55.41219 | 37.90319 | 571 ft | 2 kts | 69° |
| 2026-04-24 06:04 | 55.41216 | 37.90293 | 572 ft | 2 kts | 97° |
| 2026-04-24 06:04 | 55.41221 | 37.90268 | 572 ft | 2 kts | 122° |
| 2026-04-24 06:04 | 55.41228 | 37.90253 | 573 ft | 0 kts | 141° |
| 2026-04-24 06:05 | 55.41233 | 37.90246 | 573 ft | 0 kts | 144° |
| 2026-04-24 06:06 | 55.41230 | 37.90250 | 573 ft | 3 kts | 144° |
| 2026-04-24 06:06 | 55.41179 | 37.90316 | 570 ft | 13 kts | 144° |
| 2026-04-24 06:06 | 55.41112 | 37.90380 | 566 ft | 8 kts | 189° |
| 2026-04-24 06:07 | 55.41069 | 37.90300 | 565 ft | 9 kts | 236° |
| 2026-04-24 06:07 | 55.41026 | 37.90192 | 566 ft | 11 kts | 236° |
| 2026-04-24 06:07 | 55.40975 | 37.90059 | 567 ft | 14 kts | 237° |
| 2026-04-24 06:07 | 55.40912 | 37.89894 | 565 ft | 18 kts | 234° |
| 2026-04-24 06:08 | 55.40832 | 37.89695 | 565 ft | 20 kts | 236° |
| 2026-04-24 06:08 | 55.40752 | 37.89528 | 562 ft | 16 kts | 222° |
| 2026-04-24 06:08 | 55.40679 | 37.89384 | 561 ft | 12 kts | 234° |
| 2026-04-24 06:08 | 55.40610 | 37.89374 | 560 ft | 12 kts | 150° |
| 2026-04-24 06:09 | 55.40523 | 37.89481 | 556 ft | 17 kts | 146° |
| 2026-04-24 06:09 | 55.40417 | 37.89609 | 549 ft | 20 kts | 146° |
| 2026-04-24 06:09 | 55.40294 | 37.89757 | 544 ft | 22 kts | 146° |
| 2026-04-24 06:09 | 55.40164 | 37.89914 | 540 ft | 23 kts | 146° |
| 2026-04-24 06:10 | 55.40027 | 37.90079 | 536 ft | 24 kts | 146° |
| 2026-04-24 06:10 | 55.39886 | 37.90250 | 533 ft | 25 kts | 146° |
| 2026-04-24 06:10 | 55.39740 | 37.90424 | 529 ft | 25 kts | 146° |
| 2026-04-24 06:11 | 55.39592 | 37.90506 | 526 ft | 1 kts | 228° |
| 2026-04-24 06:11 | 55.39579 | 37.90481 | 527 ft | 5 kts | 231° |
| 2026-04-24 06:11 | 55.39545 | 37.90390 | 528 ft | 11 kts | 251° |
| 2026-04-24 06:11 | 55.39577 | 37.90259 | 531 ft | 10 kts | 321° |
| 2026-04-24 06:12 | 55.39588 | 37.90243 | 532 ft | 1 kts | 323° |
| 2026-04-24 06:12 | 55.39801 | 37.89990 | 538 ft | 71 kts | 326° |
| 2026-04-24 06:12 | 55.40380 | 37.89291 | 554 ft | 129 kts | 326° |
| 2026-04-24 06:12 | 55.41213 | 37.88291 | 846 ft | 152 kts | 329° |
| 2026-04-24 06:13 | 55.42037 | 37.87317 | 1765 ft | 137 kts | 330° |
| 2026-04-24 06:13 | 55.42796 | 37.86327 | 2362 ft | 142 kts | 323° |
| 2026-04-24 06:13 | 55.43425 | 37.84838 | 2711 ft | 160 kts | 311° |
| 2026-04-24 06:13 | 55.44133 | 37.83304 | 3187 ft | 164 kts | 320° |
| 2026-04-24 06:14 | 55.44914 | 37.81792 | 3686 ft | 173 kts | 319° |
| 2026-04-24 06:14 | 55.45771 | 37.80125 | 3973 ft | 192 kts | 318° |
| 2026-04-24 06:14 | 55.46680 | 37.78286 | 4062 ft | 207 kts | 320° |
| 2026-04-24 06:14 | 55.47864 | 37.76821 | 4023 ft | 209 kts | 347° |
| 2026-04-24 06:15 | 55.49291 | 37.76240 | 4093 ft | 217 kts | 348° |
| 2026-04-24 06:15 | 55.50760 | 37.75456 | 4023 ft | 221 kts | 343° |
| 2026-04-24 06:15 | 55.52221 | 37.74712 | 3989 ft | 215 kts | 356° |
| 2026-04-24 06:15 | 55.53677 | 37.75194 | 4060 ft | 226 kts | 26° |
| 2026-04-24 06:16 | 55.55038 | 37.76743 | 4528 ft | 242 kts | 30° |
| 2026-04-24 06:16 | 55.56482 | 37.78220 | 5309 ft | 244 kts | 27° |
| 2026-04-24 06:16 | 55.57975 | 37.79628 | 6144 ft | 244 kts | 28° |
| 2026-04-24 06:16 | 55.59480 | 37.81153 | 6444 ft | 253 kts | 29° |
| 2026-04-24 06:17 | 55.61009 | 37.82721 | 6148 ft | 257 kts | 28° |
| 2026-04-24 06:17 | 55.62456 | 37.84438 | 5913 ft | 251 kts | 38° |
| 2026-04-24 06:17 | 55.63540 | 37.86860 | 5585 ft | 253 kts | 60° |
| 2026-04-24 06:17 | 55.64109 | 37.89764 | 5526 ft | 257 kts | 72° |
| 2026-04-24 06:18 | 55.64206 | 37.93021 | 6129 ft | 273 kts | 93° |
| 2026-04-24 06:18 | 55.63824 | 37.96238 | 7035 ft | 271 kts | 98° |
| 2026-04-24 06:18 | 55.63398 | 37.99490 | 7759 ft | 274 kts | 98° |
| 2026-04-24 06:18 | 55.62969 | 38.02812 | 8454 ft | 278 kts | 98° |
| 2026-04-24 06:19 | 55.62544 | 38.06136 | 9177 ft | 281 kts | 98° |
| 2026-04-24 06:19 | 55.62111 | 38.09517 | 9519 ft | 288 kts | 99° |
| 2026-04-24 06:19 | 55.61667 | 38.12960 | 9528 ft | 285 kts | 99° |
| 2026-04-24 06:19 | 55.61230 | 38.16360 | 9555 ft | 288 kts | 99° |
| 2026-04-24 06:20 | 55.60783 | 38.19908 | 9892 ft | 303 kts | 99° |
| 2026-04-24 06:20 | 55.60321 | 38.23537 | 10622 ft | 305 kts | 99° |
| 2026-04-24 06:20 | 55.59857 | 38.27166 | 11326 ft | 308 kts | 100° |
| 2026-04-24 06:20 | 55.59382 | 38.30877 | 12017 ft | 310 kts | 100° |
| 2026-04-24 06:21 | 55.58908 | 38.34575 | 12443 ft | 318 kts | 100° |
| 2026-04-24 06:21 | 55.58415 | 38.38403 | 12506 ft | 317 kts | 101° |
| 2026-04-24 06:21 | 55.58031 | 38.42161 | 12510 ft | 312 kts | 92° |
| 2026-04-24 06:21 | 55.58159 | 38.45986 | 12516 ft | 309 kts | 75° |
| 2026-04-24 06:22 | 55.58962 | 38.49497 | 12981 ft | 315 kts | 60° |
| 2026-04-24 06:22 | 55.60036 | 38.52823 | 13706 ft | 315 kts | 59° |
| 2026-04-24 06:22 | 55.61142 | 38.56153 | 14366 ft | 318 kts | 60° |
| 2026-04-24 06:22 | 55.62277 | 38.59575 | 14934 ft | 324 kts | 60° |
| 2026-04-24 06:23 | 55.63412 | 38.63009 | 15456 ft | 331 kts | 60° |
| 2026-04-24 06:23 | 55.64585 | 38.66555 | 16155 ft | 333 kts | 61° |
| 2026-04-24 06:23 | 55.65749 | 38.70079 | 16454 ft | 339 kts | 62° |
| 2026-04-24 06:23 | 55.66947 | 38.73703 | 16494 ft | 339 kts | 62° |
| 2026-04-24 06:24 | 55.68116 | 38.77251 | 16502 ft | 336 kts | 62° |
| 2026-04-24 06:24 | 55.69291 | 38.80821 | 16499 ft | 335 kts | 62° |
| 2026-04-24 06:24 | 55.70470 | 38.84412 | 16500 ft | 335 kts | 62° |
| 2026-04-24 06:24 | 55.71630 | 38.87950 | 16500 ft | 335 kts | 62° |
| 2026-04-24 06:25 | 55.72852 | 38.91469 | 16497 ft | 336 kts | 58° |
| 2026-04-24 06:25 | 55.74259 | 38.94781 | 16544 ft | 344 kts | 51° |
| 2026-04-24 06:25 | 55.75856 | 38.97918 | 17310 ft | 342 kts | 49° |
| 2026-04-24 06:25 | 55.77482 | 39.00994 | 17808 ft | 348 kts | 49° |
| 2026-04-24 06:26 | 55.79146 | 39.04130 | 18386 ft | 352 kts | 49° |
| 2026-04-24 06:26 | 55.80829 | 39.07307 | 18932 ft | 356 kts | 49° |
| 2026-04-24 06:26 | 55.82525 | 39.10540 | 19458 ft | 359 kts | 51° |
| 2026-04-24 06:26 | 55.84109 | 39.13924 | 19987 ft | 361 kts | 55° |
| 2026-04-24 06:27 | 55.85522 | 39.17652 | 20478 ft | 364 kts | 62° |
| 2026-04-24 06:27 | 55.86718 | 39.21565 | 20983 ft | 366 kts | 65° |
| 2026-04-24 06:27 | 55.87865 | 39.25607 | 21523 ft | 368 kts | 66° |
| 2026-04-24 06:27 | 55.89004 | 39.29687 | 21971 ft | 372 kts | 66° |
| 2026-04-24 06:28 | 55.90150 | 39.33807 | 22448 ft | 375 kts | 66° |
| 2026-04-24 06:28 | 55.91309 | 39.37979 | 22917 ft | 378 kts | 66° |
| 2026-04-24 06:28 | 55.92488 | 39.42230 | 23365 ft | 382 kts | 66° |
| 2026-04-24 06:28 | 55.93653 | 39.46440 | 23840 ft | 384 kts | 66° |
| 2026-04-24 06:29 | 55.94837 | 39.50724 | 24202 ft | 390 kts | 67° |
| 2026-04-24 06:29 | 55.96032 | 39.55054 | 24634 ft | 393 kts | 67° |
| 2026-04-24 06:29 | 55.97237 | 39.59430 | 24999 ft | 397 kts | 67° |
| 2026-04-24 06:29 | 55.98456 | 39.63867 | 25422 ft | 398 kts | 66° |
| 2026-04-24 06:30 | 55.99682 | 39.68301 | 25776 ft | 402 kts | 66° |
| 2026-04-24 06:30 | 56.00932 | 39.72779 | 26132 ft | 404 kts | 68° |
| 2026-04-24 06:30 | 56.02018 | 39.77400 | 26506 ft | 403 kts | 75° |
| 2026-04-24 06:30 | 56.02640 | 39.82242 | 26819 ft | 401 kts | 86° |
| 2026-04-24 06:31 | 56.02891 | 39.87156 | 27144 ft | 400 kts | 90° |
| 2026-04-24 06:31 | 56.03012 | 39.92129 | 27438 ft | 402 kts | 91° |
| 2026-04-24 06:31 | 56.03100 | 39.97114 | 27737 ft | 404 kts | 91° |
| 2026-04-24 06:31 | 56.03178 | 40.02115 | 28030 ft | 406 kts | 91° |
| 2026-04-24 06:32 | 56.03252 | 40.07207 | 28317 ft | 408 kts | 91° |
| 2026-04-24 06:32 | 56.03321 | 40.12242 | 28624 ft | 410 kts | 91° |
| 2026-04-24 06:32 | 56.03388 | 40.17384 | 28906 ft | 412 kts | 90° |
| 2026-04-24 06:32 | 56.03451 | 40.22489 | 29199 ft | 415 kts | 90° |
| 2026-04-24 06:33 | 56.03513 | 40.27630 | 29471 ft | 417 kts | 90° |
| 2026-04-24 06:33 | 56.03572 | 40.32793 | 29747 ft | 419 kts | 90° |
| 2026-04-24 06:33 | 56.03630 | 40.38059 | 30019 ft | 421 kts | 90° |
| 2026-04-24 06:33 | 56.03685 | 40.43243 | 30291 ft | 423 kts | 90° |
| 2026-04-24 06:34 | 56.03738 | 40.48494 | 30546 ft | 425 kts | 90° |
| 2026-04-24 06:34 | 56.03789 | 40.53755 | 30783 ft | 426 kts | 90° |
| 2026-04-24 06:34 | 56.03838 | 40.59064 | 31006 ft | 427 kts | 90° |
| 2026-04-24 06:34 | 56.03885 | 40.64358 | 31214 ft | 429 kts | 90° |
| 2026-04-24 06:35 | 56.03930 | 40.69719 | 31395 ft | 431 kts | 91° |
| 2026-04-24 06:35 | 56.03972 | 40.75115 | 31601 ft | 432 kts | 91° |
| 2026-04-24 06:35 | 56.04011 | 40.80424 | 31778 ft | 434 kts | 91° |
| 2026-04-24 06:35 | 56.04048 | 40.85814 | 31974 ft | 436 kts | 90° |
| 2026-04-24 06:36 | 56.04083 | 40.91310 | 32170 ft | 438 kts | 91° |
| 2026-04-24 06:36 | 56.04116 | 40.96726 | 32336 ft | 441 kts | 90° |
| 2026-04-24 06:36 | 56.04146 | 41.02172 | 32515 ft | 443 kts | 90° |
| 2026-04-24 06:36 | 56.04174 | 41.07688 | 32704 ft | 444 kts | 90° |
| 2026-04-24 06:37 | 56.04201 | 41.13247 | 32865 ft | 446 kts | 90° |
| 2026-04-24 06:37 | 56.04224 | 41.18745 | 33053 ft | 447 kts | 90° |
| 2026-04-24 06:37 | 56.04245 | 41.24342 | 33215 ft | 449 kts | 90° |
| 2026-04-24 06:37 | 56.04263 | 41.29917 | 33416 ft | 451 kts | 90° |
| 2026-04-24 06:38 | 56.04279 | 41.35541 | 33632 ft | 452 kts | 90° |
| 2026-04-24 06:38 | 56.04292 | 41.41083 | 33817 ft | 455 kts | 90° |
| 2026-04-24 06:38 | 56.04303 | 41.46744 | 34001 ft | 457 kts | 90° |
| 2026-04-24 06:38 | 56.04312 | 41.52464 | 34224 ft | 458 kts | 90° |
| 2026-04-24 06:39 | 56.04318 | 41.58152 | 34423 ft | 458 kts | 90° |
| 2026-04-24 06:39 | 56.04322 | 41.69456 | 34442 ft | 457 kts | 91° |
| 2026-04-24 06:40 | 56.04316 | 41.80765 | 34440 ft | 455 kts | 91° |
| 2026-04-24 06:40 | 56.04299 | 41.92042 | 34437 ft | 456 kts | 91° |
| 2026-04-24 06:41 | 56.04272 | 42.03371 | 34435 ft | 456 kts | 91° |
| 2026-04-24 06:41 | 56.04235 | 42.14639 | 34440 ft | 455 kts | 91° |
| 2026-04-24 06:42 | 56.04187 | 42.25925 | 34443 ft | 454 kts | 91° |
| 2026-04-24 06:42 | 56.04130 | 42.37141 | 34449 ft | 454 kts | 92° |
| 2026-04-24 06:43 | 56.04061 | 42.48406 | 34450 ft | 455 kts | 92° |
| 2026-04-24 06:43 | 56.03968 | 42.59711 | 34437 ft | 455 kts | 92° |
| 2026-04-24 06:44 | 56.03828 | 42.70925 | 34433 ft | 455 kts | 93° |
| 2026-04-24 06:44 | 56.03675 | 42.82199 | 34429 ft | 455 kts | 93° |
| 2026-04-24 06:45 | 56.03512 | 42.93542 | 34432 ft | 455 kts | 93° |
| 2026-04-24 06:45 | 56.03343 | 43.04797 | 34441 ft | 454 kts | 93° |
| 2026-04-24 06:46 | 56.03163 | 43.16092 | 34440 ft | 453 kts | 93° |
| 2026-04-24 06:46 | 56.02975 | 43.27316 | 34451 ft | 454 kts | 93° |
| 2026-04-24 06:47 | 56.03183 | 43.38575 | 34444 ft | 456 kts | 86° |
| 2026-04-24 06:47 | 56.03911 | 43.49778 | 34429 ft | 457 kts | 84° |
| 2026-04-24 06:48 | 56.04702 | 43.61132 | 34428 ft | 458 kts | 84° |
| 2026-04-24 06:48 | 56.05463 | 43.72367 | 34439 ft | 456 kts | 85° |
| 2026-04-24 06:49 | 56.06210 | 43.83628 | 34445 ft | 456 kts | 86° |
| 2026-04-24 06:49 | 56.06938 | 43.94831 | 34446 ft | 455 kts | 86° |
| 2026-04-24 06:50 | 56.07658 | 44.06094 | 34451 ft | 456 kts | 86° |
| 2026-04-24 06:50 | 56.08363 | 44.17295 | 34456 ft | 457 kts | 86° |
| 2026-04-24 06:51 | 56.09069 | 44.28681 | 34453 ft | 457 kts | 86° |
| 2026-04-24 06:51 | 56.09756 | 44.39933 | 34459 ft | 457 kts | 86° |
| 2026-04-24 06:52 | 56.10433 | 44.51200 | 34460 ft | 457 kts | 86° |
| 2026-04-24 06:52 | 56.11097 | 44.62454 | 34460 ft | 456 kts | 86° |
| 2026-04-24 06:53 | 56.11240 | 44.73753 | 34457 ft | 453 kts | 95° |
| 2026-04-24 06:53 | 56.10979 | 44.84950 | 34473 ft | 454 kts | 95° |
| 2026-04-24 06:54 | 56.10701 | 44.96312 | 34467 ft | 454 kts | 95° |
| 2026-04-24 06:54 | 56.10432 | 45.07504 | 34463 ft | 453 kts | 95° |
| 2026-04-24 06:55 | 56.10152 | 45.18770 | 34453 ft | 453 kts | 95° |
| 2026-04-24 06:55 | 56.09879 | 45.29990 | 34461 ft | 453 kts | 95° |
| 2026-04-24 06:56 | 56.09599 | 45.41303 | 34465 ft | 453 kts | 95° |
| 2026-04-24 06:56 | 56.09313 | 45.52509 | 34479 ft | 453 kts | 95° |
| 2026-04-24 06:57 | 56.09014 | 45.63790 | 34478 ft | 453 kts | 95° |
| 2026-04-24 06:57 | 56.08708 | 45.74976 | 34481 ft | 454 kts | 96° |
| 2026-04-24 06:58 | 56.08390 | 45.86219 | 34489 ft | 453 kts | 96° |
| 2026-04-24 06:58 | 56.08061 | 45.97447 | 34489 ft | 453 kts | 96° |
| 2026-04-24 06:59 | 56.07723 | 46.08697 | 34487 ft | 454 kts | 96° |
| 2026-04-24 06:59 | 56.07374 | 46.19970 | 34490 ft | 453 kts | 96° |
| 2026-04-24 07:00 | 56.07016 | 46.31189 | 34496 ft | 453 kts | 96° |
| 2026-04-24 07:00 | 56.06647 | 46.42432 | 34497 ft | 453 kts | 96° |
| 2026-04-24 07:01 | 56.06284 | 46.53696 | 34498 ft | 454 kts | 95° |
| 2026-04-24 07:01 | 56.06327 | 46.64947 | 34504 ft | 456 kts | 91° |
| 2026-04-24 07:02 | 56.06503 | 46.76306 | 34507 ft | 456 kts | 92° |
| 2026-04-24 07:02 | 56.06643 | 46.87623 | 34512 ft | 455 kts | 92° |
| 2026-04-24 07:03 | 56.06752 | 46.98969 | 34516 ft | 454 kts | 92° |
| 2026-04-24 07:03 | 56.06839 | 47.10180 | 34517 ft | 456 kts | 92° |
| 2026-04-24 07:04 | 56.06913 | 47.21526 | 34517 ft | 456 kts | 92° |
| 2026-04-24 07:04 | 56.06974 | 47.32868 | 34519 ft | 457 kts | 92° |
| 2026-04-24 07:05 | 56.07023 | 47.44267 | 34522 ft | 457 kts | 92° |
| 2026-04-24 07:05 | 56.07061 | 47.55553 | 34523 ft | 457 kts | 92° |
| 2026-04-24 07:06 | 56.07088 | 47.67014 | 34526 ft | 457 kts | 93° |
| 2026-04-24 07:06 | 56.07106 | 47.78317 | 34535 ft | 457 kts | 93° |
| 2026-04-24 07:07 | 56.07112 | 47.89681 | 34535 ft | 457 kts | 93° |
| 2026-04-24 07:07 | 56.07105 | 48.06759 | 34535 ft | 458 kts | 93° |
| 2026-04-24 07:08 | 56.07090 | 48.18158 | 34532 ft | 458 kts | 93° |
| 2026-04-24 07:08 | 56.07064 | 48.29506 | 34539 ft | 458 kts | 93° |
| 2026-04-24 07:09 | 56.07027 | 48.40852 | 34544 ft | 458 kts | 93° |
| 2026-04-24 07:09 | 56.06980 | 48.52262 | 34548 ft | 458 kts | 93° |
| 2026-04-24 07:10 | 56.06923 | 48.63582 | 34548 ft | 458 kts | 93° |
| 2026-04-24 07:10 | 56.06854 | 48.75040 | 34542 ft | 459 kts | 94° |
| 2026-04-24 07:11 | 56.06776 | 48.86382 | 34544 ft | 458 kts | 94° |
| 2026-04-24 07:11 | 56.06687 | 48.97763 | 34543 ft | 457 kts | 94° |
| 2026-04-24 07:12 | 56.06588 | 49.09087 | 34556 ft | 458 kts | 94° |
| 2026-04-24 07:12 | 56.06477 | 49.20544 | 34553 ft | 458 kts | 94° |
| 2026-04-24 07:13 | 56.06356 | 49.31907 | 34569 ft | 459 kts | 94° |
| 2026-04-24 07:13 | 56.06225 | 49.43269 | 34585 ft | 459 kts | 94° |
| 2026-04-24 07:14 | 56.06083 | 49.54669 | 34589 ft | 459 kts | 94° |
| 2026-04-24 07:14 | 56.05931 | 49.66110 | 34586 ft | 459 kts | 95° |
| 2026-04-24 07:15 | 56.05769 | 49.77439 | 34582 ft | 459 kts | 95° |
| 2026-04-24 07:15 | 56.05595 | 49.88832 | 34586 ft | 460 kts | 95° |
| 2026-04-24 07:16 | 56.05412 | 50.00307 | 34581 ft | 460 kts | 95° |
| 2026-04-24 07:16 | 56.05218 | 50.11706 | 34589 ft | 460 kts | 95° |
| 2026-04-24 07:17 | 56.05014 | 50.23122 | 34587 ft | 459 kts | 95° |
| 2026-04-24 07:17 | 56.04799 | 50.34533 | 34597 ft | 460 kts | 95° |
| 2026-04-24 07:18 | 56.04573 | 50.45933 | 34596 ft | 460 kts | 95° |
| 2026-04-24 07:18 | 56.04338 | 50.57369 | 34594 ft | 461 kts | 95° |
| 2026-04-24 07:19 | 56.04092 | 50.68749 | 34590 ft | 460 kts | 95° |
| 2026-04-24 07:19 | 56.03835 | 50.80178 | 34592 ft | 460 kts | 96° |
| 2026-04-24 07:20 | 56.03684 | 50.91617 | 34341 ft | 464 kts | 92° |
| 2026-04-24 07:20 | 56.03715 | 50.97300 | 33827 ft | 465 kts | 92° |
| 2026-04-24 07:20 | 56.03762 | 51.03121 | 33313 ft | 462 kts | 92° |
| 2026-04-24 07:21 | 56.03806 | 51.08777 | 32833 ft | 456 kts | 92° |
| 2026-04-24 07:21 | 56.03841 | 51.14324 | 32330 ft | 451 kts | 92° |
| 2026-04-24 07:21 | 56.03869 | 51.19927 | 31819 ft | 448 kts | 92° |
| 2026-04-24 07:21 | 56.03889 | 51.25429 | 31296 ft | 446 kts | 92° |
| 2026-04-24 07:22 | 56.03904 | 51.31020 | 30741 ft | 449 kts | 92° |
| 2026-04-24 07:22 | 56.03914 | 51.36591 | 30080 ft | 451 kts | 92° |
| 2026-04-24 07:22 | 56.03921 | 51.42098 | 29406 ft | 450 kts | 92° |
| 2026-04-24 07:22 | 56.03926 | 51.47754 | 28714 ft | 450 kts | 92° |
| 2026-04-24 07:23 | 56.03927 | 51.53296 | 28036 ft | 449 kts | 91° |
| 2026-04-24 07:23 | 56.03925 | 51.58850 | 27343 ft | 448 kts | 91° |
| 2026-04-24 07:23 | 56.03921 | 51.64349 | 26695 ft | 445 kts | 91° |
| 2026-04-24 07:23 | 56.03939 | 51.69876 | 26072 ft | 450 kts | 90° |
| 2026-04-24 07:24 | 56.04215 | 51.75507 | 25423 ft | 455 kts | 83° |
| 2026-04-24 07:24 | 56.04966 | 51.80990 | 24776 ft | 457 kts | 72° |
| 2026-04-24 07:24 | 56.06253 | 51.86127 | 24147 ft | 454 kts | 64° |
| 2026-04-24 07:24 | 56.07867 | 51.90937 | 23521 ft | 451 kts | 57° |
| 2026-04-24 07:25 | 56.09735 | 51.95358 | 22906 ft | 450 kts | 52° |
| 2026-04-24 07:25 | 56.11746 | 51.99674 | 22279 ft | 447 kts | 51° |
| 2026-04-24 07:25 | 56.13743 | 52.03857 | 21662 ft | 443 kts | 50° |
| 2026-04-24 07:25 | 56.15719 | 52.07997 | 21048 ft | 440 kts | 51° |
| 2026-04-24 07:26 | 56.17683 | 52.12138 | 20437 ft | 437 kts | 51° |
| 2026-04-24 07:26 | 56.19638 | 52.16290 | 19821 ft | 433 kts | 51° |
| 2026-04-24 07:26 | 56.21536 | 52.20341 | 19218 ft | 429 kts | 51° |
| 2026-04-24 07:26 | 56.23445 | 52.24435 | 18607 ft | 426 kts | 51° |
| 2026-04-24 07:27 | 56.25343 | 52.28519 | 18002 ft | 422 kts | 51° |
| 2026-04-24 07:27 | 56.27199 | 52.32525 | 17405 ft | 419 kts | 51° |
| 2026-04-24 07:27 | 56.29048 | 52.36527 | 16804 ft | 414 kts | 51° |
| 2026-04-24 07:27 | 56.30853 | 52.40444 | 16250 ft | 411 kts | 51° |
| 2026-04-24 07:28 | 56.32659 | 52.44375 | 15704 ft | 408 kts | 51° |
| 2026-04-24 07:28 | 56.34463 | 52.48306 | 15174 ft | 404 kts | 51° |
| 2026-04-24 07:28 | 56.36239 | 52.52184 | 14677 ft | 397 kts | 51° |
| 2026-04-24 07:28 | 56.37946 | 52.55915 | 14182 ft | 381 kts | 51° |
| 2026-04-24 07:29 | 56.39602 | 52.59540 | 13686 ft | 367 kts | 52° |
| 2026-04-24 07:29 | 56.41134 | 52.62900 | 13212 ft | 355 kts | 52° |
| 2026-04-24 07:29 | 56.42686 | 52.66312 | 12716 ft | 344 kts | 53° |
| 2026-04-24 07:29 | 56.44190 | 52.69615 | 12220 ft | 335 kts | 52° |
| 2026-04-24 07:30 | 56.45822 | 52.72495 | 11810 ft | 328 kts | 39° |
| 2026-04-24 07:30 | 56.47672 | 52.74820 | 11420 ft | 326 kts | 34° |
| 2026-04-24 07:30 | 56.49567 | 52.77007 | 11029 ft | 324 kts | 34° |
| 2026-04-24 07:30 | 56.51460 | 52.79201 | 10635 ft | 321 kts | 34° |
| 2026-04-24 07:31 | 56.53326 | 52.81394 | 10246 ft | 319 kts | 35° |
| 2026-04-24 07:31 | 56.55160 | 52.83571 | 9859 ft | 317 kts | 35° |
| 2026-04-24 07:31 | 56.56981 | 52.85741 | 9472 ft | 315 kts | 35° |
| 2026-04-24 07:31 | 56.58808 | 52.87926 | 9083 ft | 313 kts | 35° |
| 2026-04-24 07:32 | 56.60611 | 52.90086 | 8699 ft | 312 kts | 35° |
| 2026-04-24 07:32 | 56.62420 | 52.92257 | 8311 ft | 310 kts | 35° |
| 2026-04-24 07:32 | 56.64202 | 52.94398 | 7927 ft | 308 kts | 35° |
| 2026-04-24 07:32 | 56.65969 | 52.96523 | 7545 ft | 307 kts | 35° |
| 2026-04-24 07:33 | 56.67749 | 52.98667 | 7159 ft | 306 kts | 35° |
| 2026-04-24 07:33 | 56.69510 | 53.00789 | 6773 ft | 304 kts | 35° |
| 2026-04-24 07:33 | 56.71245 | 53.02884 | 6394 ft | 303 kts | 35° |
| 2026-04-24 07:33 | 56.73004 | 53.05009 | 5986 ft | 300 kts | 35° |
| 2026-04-24 07:34 | 56.74715 | 53.07079 | 5606 ft | 294 kts | 35° |
| 2026-04-24 07:34 | 56.76379 | 53.09094 | 5228 ft | 288 kts | 34° |
| 2026-04-24 07:34 | 56.78042 | 53.11109 | 4988 ft | 279 kts | 34° |
| 2026-04-24 07:34 | 56.79601 | 53.13000 | 4972 ft | 261 kts | 35° |
| 2026-04-24 07:35 | 56.81062 | 53.14774 | 4978 ft | 247 kts | 35° |
| 2026-04-24 07:35 | 56.82447 | 53.16460 | 4976 ft | 235 kts | 35° |
| 2026-04-24 07:35 | 56.83790 | 53.18096 | 5004 ft | 227 kts | 35° |
| 2026-04-24 07:35 | 56.85097 | 53.19691 | 4986 ft | 227 kts | 35° |
| 2026-04-24 07:36 | 56.86391 | 53.21268 | 4984 ft | 222 kts | 35° |
| 2026-04-24 07:36 | 56.87682 | 53.22845 | 4996 ft | 232 kts | 35° |
| 2026-04-24 07:36 | 56.89050 | 53.24517 | 4986 ft | 238 kts | 35° |
| 2026-04-24 07:36 | 56.90395 | 53.26159 | 4977 ft | 226 kts | 35° |
| 2026-04-24 07:37 | 56.91666 | 53.27713 | 4991 ft | 211 kts | 35° |
| 2026-04-24 07:37 | 56.92866 | 53.29182 | 4982 ft | 207 kts | 35° |
| 2026-04-24 07:37 | 56.94057 | 53.30640 | 4987 ft | 203 kts | 36° |
| 2026-04-24 07:37 | 56.95218 | 53.32066 | 4976 ft | 204 kts | 35° |
| 2026-04-24 07:38 | 56.96400 | 53.33517 | 4977 ft | 203 kts | 35° |
| 2026-04-24 07:38 | 56.97555 | 53.34938 | 4978 ft | 203 kts | 35° |
| 2026-04-24 07:38 | 56.98732 | 53.36385 | 4979 ft | 203 kts | 35° |
| 2026-04-24 07:38 | 56.99906 | 53.37828 | 4979 ft | 203 kts | 35° |
| 2026-04-24 07:39 | 57.01079 | 53.39273 | 4978 ft | 203 kts | 36° |
| 2026-04-24 07:39 | 57.02243 | 53.40702 | 4981 ft | 204 kts | 35° |
| 2026-04-24 07:39 | 57.03416 | 53.42152 | 4977 ft | 202 kts | 36° |
| 2026-04-24 07:39 | 57.04564 | 53.43578 | 4972 ft | 198 kts | 35° |
| 2026-04-24 07:40 | 57.05694 | 53.44967 | 4970 ft | 191 kts | 35° |
| 2026-04-24 07:40 | 57.06668 | 53.46582 | 4973 ft | 190 kts | 58° |
| 2026-04-24 07:40 | 57.07155 | 53.48752 | 4980 ft | 183 kts | 84° |
| 2026-04-24 07:40 | 57.07260 | 53.51031 | 4912 ft | 175 kts | 97° |
| 2026-04-24 07:41 | 57.06914 | 53.53094 | 4658 ft | 168 kts | 131° |
| 2026-04-24 07:41 | 57.06178 | 53.54693 | 4432 ft | 161 kts | 137° |
| 2026-04-24 07:41 | 57.05431 | 53.56096 | 4281 ft | 150 kts | 140° |
| 2026-04-24 07:41 | 57.04684 | 53.57467 | 4066 ft | 154 kts | 140° |
| 2026-04-24 07:42 | 57.03925 | 53.58859 | 3875 ft | 155 kts | 139° |
| 2026-04-24 07:42 | 57.03151 | 53.60273 | 3689 ft | 156 kts | 140° |
| 2026-04-24 07:42 | 57.02268 | 53.61314 | 3502 ft | 150 kts | 168° |
| 2026-04-24 07:42 | 57.01279 | 53.61326 | 3476 ft | 141 kts | 191° |
| 2026-04-24 07:43 | 57.00368 | 53.60634 | 3495 ft | 143 kts | 205° |
| 2026-04-24 07:43 | 56.99451 | 53.59858 | 3484 ft | 144 kts | 203° |
| 2026-04-24 07:43 | 56.98553 | 53.59098 | 3487 ft | 144 kts | 204° |
| 2026-04-24 07:43 | 56.97658 | 53.58345 | 3421 ft | 141 kts | 203° |
| 2026-04-24 07:44 | 56.96757 | 53.57583 | 3302 ft | 144 kts | 204° |
| 2026-04-24 07:44 | 56.95845 | 53.56820 | 3105 ft | 144 kts | 203° |
| 2026-04-24 07:44 | 56.94927 | 53.56024 | 2756 ft | 146 kts | 204° |
| 2026-04-24 07:44 | 56.94048 | 53.55247 | 2599 ft | 138 kts | 204° |
| 2026-04-24 07:45 | 56.93175 | 53.54484 | 2409 ft | 142 kts | 203° |
| 2026-04-24 07:45 | 56.92274 | 53.53728 | 2243 ft | 142 kts | 203° |
| 2026-04-24 07:45 | 56.91385 | 53.52968 | 2017 ft | 142 kts | 202° |
| 2026-04-24 07:45 | 56.90499 | 53.52214 | 1796 ft | 142 kts | 202° |
| 2026-04-24 07:46 | 56.89583 | 53.51451 | 1583 ft | 144 kts | 202° |
| 2026-04-24 07:46 | 56.88688 | 53.50680 | 1339 ft | 142 kts | 204° |
| 2026-04-24 07:46 | 56.87794 | 53.49871 | 1108 ft | 145 kts | 201° |
| 2026-04-24 07:46 | 56.86898 | 53.49155 | 957 ft | 140 kts | 202° |
| 2026-04-24 07:47 | 56.86006 | 53.48380 | 796 ft | 141 kts | 204° |
| 2026-04-24 07:47 | 56.85116 | 53.47622 | 618 ft | 141 kts | 203° |
| 2026-04-24 07:47 | 56.84242 | 53.46867 | 511 ft | 133 kts | 202° |
| 2026-04-24 07:47 | 56.83561 | 53.46300 | 532 ft | 62 kts | 204° |
| 2026-04-24 07:48 | 56.83263 | 53.46038 | 535 ft | 43 kts | 205° |
| 2026-04-24 07:48 | 56.83011 | 53.45823 | 534 ft | 29 kts | 205° |
| 2026-04-24 07:48 | 56.82908 | 53.45709 | 532 ft | 10 kts | 265° |
| 2026-04-24 07:48 | 56.82932 | 53.45591 | 529 ft | 10 kts | 293° |
| 2026-04-24 07:49 | 56.82964 | 53.45467 | 527 ft | 9 kts | 312° |
| 2026-04-24 07:49 | 56.83015 | 53.45470 | 527 ft | 7 kts | 21° |
| 2026-04-24 07:49 | 56.83051 | 53.45503 | 526 ft | 0 kts | 25° |